sensor_id;sensor_type;location;lat;lon;timestamp;P1;durP1;ratioP1;P2;durP2;ratioP2
7919;SDS011;18778;47.610;9.776;2023-09-19T00:00:37;1.50;;;1.40;;
7919;SDS011;18778;47.610;9.776;2023-09-19T00:03:05;1.83;;;1.40;;
7919;SDS011;18778;47.610;9.776;2023-09-19T00:05:35;2.37;;;1.40;;
7919;SDS011;18778;47.610;9.776;2023-09-19T00:08:03;1.30;;;1.20;;
7919;SDS011;18778;47.610;9.776;2023-09-19T00:10:29;2.60;;;1.40;;
7919;SDS011;18778;47.610;9.776;2023-09-19T00:12:56;1.50;;;1.40;;
7919;SDS011;18778;47.610;9.776;2023-09-19T00:15:30;1.57;;;1.47;;
7919;SDS011;18778;47.610;9.776;2023-09-19T00:17:58;1.60;;;1.50;;
7919;SDS011;18778;47.610;9.776;2023-09-19T00:20:24;2.83;;;1.30;;
7919;SDS011;18778;47.610;9.776;2023-09-19T00:22:50;2.70;;;1.30;;
7919;SDS011;18778;47.610;9.776;2023-09-19T00:25:22;1.40;;;1.30;;
7919;SDS011;18778;47.610;9.776;2023-09-19T00:27:47;1.63;;;1.53;;
7919;SDS011;18778;47.610;9.776;2023-09-19T00:30:16;1.57;;;1.47;;
7919;SDS011;18778;47.610;9.776;2023-09-19T00:32:45;1.43;;;1.33;;
7919;SDS011;18778;47.610;9.776;2023-09-19T00:35:14;1.50;;;1.40;;
7919;SDS011;18778;47.610;9.776;2023-09-19T00:37:41;1.73;;;1.50;;
7919;SDS011;18778;47.610;9.776;2023-09-19T00:40:07;2.10;;;1.60;;
7919;SDS011;18778;47.610;9.776;2023-09-19T00:42:40;3.00;;;1.50;;
7919;SDS011;18778;47.610;9.776;2023-09-19T00:45:07;2.07;;;1.50;;
7919;SDS011;18778;47.610;9.776;2023-09-19T00:47:35;2.30;;;1.50;;
7919;SDS011;18778;47.610;9.776;2023-09-19T00:50:02;2.00;;;1.73;;
7919;SDS011;18778;47.610;9.776;2023-09-19T00:52:28;2.37;;;1.70;;
7919;SDS011;18778;47.610;9.776;2023-09-19T00:54:54;3.00;;;2.00;;
7919;SDS011;18778;47.610;9.776;2023-09-19T00:57:20;1.73;;;1.63;;
7919;SDS011;18778;47.610;9.776;2023-09-19T00:59:47;1.70;;;1.60;;
7919;SDS011;18778;47.610;9.776;2023-09-19T01:02:16;1.80;;;1.70;;
7919;SDS011;18778;47.610;9.776;2023-09-19T01:04:42;2.53;;;1.80;;
7919;SDS011;18778;47.610;9.776;2023-09-19T01:07:09;2.83;;;2.17;;
7919;SDS011;18778;47.610;9.776;2023-09-19T01:09:35;1.63;;;1.50;;
7919;SDS011;18778;47.610;9.776;2023-09-19T01:12:02;1.73;;;1.63;;
7919;SDS011;18778;47.610;9.776;2023-09-19T01:25:26;1.60;;;1.50;;
7919;SDS011;18778;47.610;9.776;2023-09-19T01:28:16;2.30;;;1.80;;
7919;SDS011;18778;47.610;9.776;2023-09-19T01:30:57;1.40;;;1.30;;
7919;SDS011;18778;47.610;9.776;2023-09-19T01:33:26;2.80;;;1.80;;
7919;SDS011;18778;47.610;9.776;2023-09-19T01:35:52;2.03;;;1.83;;
7919;SDS011;18778;47.610;9.776;2023-09-19T01:38:23;3.43;;;1.83;;
7919;SDS011;18778;47.610;9.776;2023-09-19T01:45:51;2.00;;;1.80;;
7919;SDS011;18778;47.610;9.776;2023-09-19T01:48:35;1.63;;;1.53;;
7919;SDS011;18778;47.610;9.776;2023-09-19T01:51:07;2.03;;;1.50;;
7919;SDS011;18778;47.610;9.776;2023-09-19T01:53:36;1.50;;;1.40;;
7919;SDS011;18778;47.610;9.776;2023-09-19T01:56:09;1.67;;;1.50;;
7919;SDS011;18778;47.610;9.776;2023-09-19T01:58:51;3.53;;;1.53;;
7919;SDS011;18778;47.610;9.776;2023-09-19T02:01:22;1.57;;;1.47;;
7919;SDS011;18778;47.610;9.776;2023-09-19T02:03:49;1.53;;;1.43;;
7919;SDS011;18778;47.610;9.776;2023-09-19T02:06:16;2.17;;;1.33;;
7919;SDS011;18778;47.610;9.776;2023-09-19T02:08:43;3.57;;;1.40;;
7919;SDS011;18778;47.610;9.776;2023-09-19T02:11:10;1.77;;;1.40;;
7919;SDS011;18778;47.610;9.776;2023-09-19T02:13:36;2.13;;;1.63;;
7919;SDS011;18778;47.610;9.776;2023-09-19T02:16:02;3.37;;;1.40;;
7919;SDS011;18778;47.610;9.776;2023-09-19T02:18:29;3.00;;;1.40;;
7919;SDS011;18778;47.610;9.776;2023-09-19T02:20:55;1.80;;;1.70;;
7919;SDS011;18778;47.610;9.776;2023-09-19T02:23:23;1.47;;;1.30;;
7919;SDS011;18778;47.610;9.776;2023-09-19T02:25:56;3.50;;;1.60;;
7919;SDS011;18778;47.610;9.776;2023-09-19T02:28:29;1.80;;;1.70;;
7919;SDS011;18778;47.610;9.776;2023-09-19T02:30:56;1.40;;;1.30;;
7919;SDS011;18778;47.610;9.776;2023-09-19T02:33:23;2.77;;;1.63;;
7919;SDS011;18778;47.610;9.776;2023-09-19T02:35:48;1.60;;;1.50;;
7919;SDS011;18778;47.610;9.776;2023-09-19T02:38:14;1.50;;;1.40;;
7919;SDS011;18778;47.610;9.776;2023-09-19T02:40:43;3.47;;;1.53;;
7919;SDS011;18778;47.610;9.776;2023-09-19T02:43:08;1.70;;;1.60;;
7919;SDS011;18778;47.610;9.776;2023-09-19T02:45:34;2.53;;;1.87;;
7919;SDS011;18778;47.610;9.776;2023-09-19T02:48:00;3.00;;;1.73;;
7919;SDS011;18778;47.610;9.776;2023-09-19T02:50:27;1.50;;;1.40;;
7919;SDS011;18778;47.610;9.776;2023-09-19T02:52:52;1.70;;;1.47;;
7919;SDS011;18778;47.610;9.776;2023-09-19T02:55:18;1.60;;;1.50;;
7919;SDS011;18778;47.610;9.776;2023-09-19T02:57:47;1.90;;;1.77;;
7919;SDS011;18778;47.610;9.776;2023-09-19T03:00:14;2.80;;;1.67;;
7919;SDS011;18778;47.610;9.776;2023-09-19T03:02:40;2.37;;;1.70;;
7919;SDS011;18778;47.610;9.776;2023-09-19T03:05:06;2.10;;;1.40;;
7919;SDS011;18778;47.610;9.776;2023-09-19T03:07:33;1.93;;;1.60;;
7919;SDS011;18778;47.610;9.776;2023-09-19T03:09:59;2.13;;;1.70;;
7919;SDS011;18778;47.610;9.776;2023-09-19T03:12:25;3.00;;;1.67;;
7919;SDS011;18778;47.610;9.776;2023-09-19T03:14:51;2.27;;;1.60;;
7919;SDS011;18778;47.610;9.776;2023-09-19T03:17:17;2.10;;;1.70;;
7919;SDS011;18778;47.610;9.776;2023-09-19T03:19:44;1.60;;;1.50;;
7919;SDS011;18778;47.610;9.776;2023-09-19T03:22:11;2.37;;;1.50;;
7919;SDS011;18778;47.610;9.776;2023-09-19T03:24:37;2.43;;;1.87;;
7919;SDS011;18778;47.610;9.776;2023-09-19T03:27:02;2.03;;;1.60;;
7919;SDS011;18778;47.610;9.776;2023-09-19T03:29:28;1.57;;;1.30;;
7919;SDS011;18778;47.610;9.776;2023-09-19T03:31:55;1.83;;;1.30;;
7919;SDS011;18778;47.610;9.776;2023-09-19T03:34:21;1.87;;;1.77;;
7919;SDS011;18778;47.610;9.776;2023-09-19T03:36:47;1.70;;;1.60;;
7919;SDS011;18778;47.610;9.776;2023-09-19T03:39:12;1.50;;;1.40;;
7919;SDS011;18778;47.610;9.776;2023-09-19T03:41:40;1.50;;;1.40;;
7919;SDS011;18778;47.610;9.776;2023-09-19T03:44:06;3.13;;;1.73;;
7919;SDS011;18778;47.610;9.776;2023-09-19T03:46:32;2.10;;;1.53;;
7919;SDS011;18778;47.610;9.776;2023-09-19T03:49:00;3.73;;;1.60;;
7919;SDS011;18778;47.610;9.776;2023-09-19T03:51:25;2.40;;;1.20;;
7919;SDS011;18778;47.610;9.776;2023-09-19T03:53:51;2.00;;;1.70;;
7919;SDS011;18778;47.610;9.776;2023-09-19T03:56:17;1.40;;;1.30;;
7919;SDS011;18778;47.610;9.776;2023-09-19T03:58:42;2.47;;;1.40;;
7919;SDS011;18778;47.610;9.776;2023-09-19T04:01:08;1.60;;;1.50;;
7919;SDS011;18778;47.610;9.776;2023-09-19T04:03:34;2.80;;;1.30;;
7919;SDS011;18778;47.610;9.776;2023-09-19T04:06:11;1.53;;;1.43;;
7919;SDS011;18778;47.610;9.776;2023-09-19T04:08:38;1.40;;;1.30;;
7919;SDS011;18778;47.610;9.776;2023-09-19T04:11:10;2.43;;;1.63;;
7919;SDS011;18778;47.610;9.776;2023-09-19T04:13:41;2.00;;;1.50;;
7919;SDS011;18778;47.610;9.776;2023-09-19T04:16:07;2.43;;;1.43;;
7919;SDS011;18778;47.610;9.776;2023-09-19T04:18:45;1.43;;;1.33;;
7919;SDS011;18778;47.610;9.776;2023-09-19T04:21:19;1.53;;;1.20;;
7919;SDS011;18778;47.610;9.776;2023-09-19T04:23:48;2.27;;;1.40;;
7919;SDS011;18778;47.610;9.776;2023-09-19T04:26:20;2.20;;;1.10;;
7919;SDS011;18778;47.610;9.776;2023-09-19T04:28:46;1.23;;;1.20;;
7919;SDS011;18778;47.610;9.776;2023-09-19T04:31:16;1.53;;;1.43;;
7919;SDS011;18778;47.610;9.776;2023-09-19T04:33:46;3.03;;;1.80;;
7919;SDS011;18778;47.610;9.776;2023-09-19T04:36:13;2.73;;;1.50;;
7919;SDS011;18778;47.610;9.776;2023-09-19T04:41:18;1.97;;;1.50;;
7919;SDS011;18778;47.610;9.776;2023-09-19T04:43:50;1.83;;;1.50;;
7919;SDS011;18778;47.610;9.776;2023-09-19T04:46:19;2.07;;;1.37;;
7919;SDS011;18778;47.610;9.776;2023-09-19T04:48:48;1.70;;;1.60;;
7919;SDS011;18778;47.610;9.776;2023-09-19T04:51:18;1.87;;;1.40;;
7919;SDS011;18778;47.610;9.776;2023-09-19T04:53:48;1.67;;;1.50;;
7919;SDS011;18778;47.610;9.776;2023-09-19T04:56:14;1.60;;;1.50;;
7919;SDS011;18778;47.610;9.776;2023-09-19T04:58:46;9.10;;;1.60;;
7919;SDS011;18778;47.610;9.776;2023-09-19T05:01:15;1.63;;;1.50;;
7919;SDS011;18778;47.610;9.776;2023-09-19T05:03:41;1.57;;;1.47;;
7919;SDS011;18778;47.610;9.776;2023-09-19T05:06:07;1.50;;;1.40;;
7919;SDS011;18778;47.610;9.776;2023-09-19T05:08:33;2.13;;;1.60;;
7919;SDS011;18778;47.610;9.776;2023-09-19T05:11:01;7.27;;;1.60;;
7919;SDS011;18778;47.610;9.776;2023-09-19T05:13:27;3.20;;;1.40;;
7919;SDS011;18778;47.610;9.776;2023-09-19T05:15:52;1.57;;;1.47;;
7919;SDS011;18778;47.610;9.776;2023-09-19T05:18:18;1.57;;;1.47;;
7919;SDS011;18778;47.610;9.776;2023-09-19T05:20:44;1.53;;;1.47;;
7919;SDS011;18778;47.610;9.776;2023-09-19T05:23:10;2.10;;;1.30;;
7919;SDS011;18778;47.610;9.776;2023-09-19T05:25:39;4.47;;;1.60;;
7919;SDS011;18778;47.610;9.776;2023-09-19T05:28:05;1.60;;;1.50;;
7919;SDS011;18778;47.610;9.776;2023-09-19T05:30:32;2.97;;;1.50;;
7919;SDS011;18778;47.610;9.776;2023-09-19T05:32:58;1.20;;;1.20;;
7919;SDS011;18778;47.610;9.776;2023-09-19T05:35:24;2.20;;;1.20;;
7919;SDS011;18778;47.610;9.776;2023-09-19T05:37:51;2.07;;;1.43;;
7919;SDS011;18778;47.610;9.776;2023-09-19T05:40:17;1.50;;;1.40;;
7919;SDS011;18778;47.610;9.776;2023-09-19T05:42:43;1.30;;;1.20;;
7919;SDS011;18778;47.610;9.776;2023-09-19T05:45:09;3.93;;;1.40;;
7919;SDS011;18778;47.610;9.776;2023-09-19T05:47:41;4.33;;;1.33;;
7919;SDS011;18778;47.610;9.776;2023-09-19T05:50:08;2.00;;;1.80;;
7919;SDS011;18778;47.610;9.776;2023-09-19T05:52:35;1.20;;;1.20;;
7919;SDS011;18778;47.610;9.776;2023-09-19T05:55:02;3.70;;;1.20;;
7919;SDS011;18778;47.610;9.776;2023-09-19T05:57:32;1.63;;;1.40;;
7919;SDS011;18778;47.610;9.776;2023-09-19T06:00:00;1.30;;;1.20;;
7919;SDS011;18778;47.610;9.776;2023-09-19T06:02:26;1.33;;;1.30;;
7919;SDS011;18778;47.610;9.776;2023-09-19T06:04:55;1.67;;;1.30;;
7919;SDS011;18778;47.610;9.776;2023-09-19T06:07:24;1.47;;;1.30;;
7919;SDS011;18778;47.610;9.776;2023-09-19T06:09:51;2.50;;;1.30;;
7919;SDS011;18778;47.610;9.776;2023-09-19T06:12:18;1.47;;;1.37;;
7919;SDS011;18778;47.610;9.776;2023-09-19T06:14:44;1.30;;;1.20;;
7919;SDS011;18778;47.610;9.776;2023-09-19T06:17:10;2.57;;;1.30;;
7919;SDS011;18778;47.610;9.776;2023-09-19T06:19:36;1.60;;;1.50;;
7919;SDS011;18778;47.610;9.776;2023-09-19T06:22:02;1.70;;;1.60;;
7919;SDS011;18778;47.610;9.776;2023-09-19T06:24:28;1.50;;;1.40;;
7919;SDS011;18778;47.610;9.776;2023-09-19T06:26:54;1.73;;;1.63;;
7919;SDS011;18778;47.610;9.776;2023-09-19T06:29:19;1.87;;;1.40;;
7919;SDS011;18778;47.610;9.776;2023-09-19T06:31:48;1.80;;;1.70;;
7919;SDS011;18778;47.610;9.776;2023-09-19T06:34:14;1.67;;;1.30;;
7919;SDS011;18778;47.610;9.776;2023-09-19T06:36:43;3.97;;;1.50;;
7919;SDS011;18778;47.610;9.776;2023-09-19T06:39:10;1.20;;;1.20;;
7919;SDS011;18778;47.610;9.776;2023-09-19T06:41:36;2.97;;;1.60;;
7919;SDS011;18778;47.610;9.776;2023-09-19T06:44:04;2.10;;;1.47;;
7919;SDS011;18778;47.610;9.776;2023-09-19T06:46:30;1.70;;;1.50;;
7919;SDS011;18778;47.610;9.776;2023-09-19T06:48:59;1.47;;;1.37;;
7919;SDS011;18778;47.610;9.776;2023-09-19T06:51:25;3.30;;;1.50;;
7919;SDS011;18778;47.610;9.776;2023-09-19T06:53:51;1.77;;;1.67;;
7919;SDS011;18778;47.610;9.776;2023-09-19T06:56:19;1.90;;;1.50;;
7919;SDS011;18778;47.610;9.776;2023-09-19T06:58:48;1.33;;;1.33;;
7919;SDS011;18778;47.610;9.776;2023-09-19T07:01:13;3.00;;;1.50;;
7919;SDS011;18778;47.610;9.776;2023-09-19T07:03:40;2.60;;;1.43;;
7919;SDS011;18778;47.610;9.776;2023-09-19T07:06:06;2.40;;;1.37;;
7919;SDS011;18778;47.610;9.776;2023-09-19T07:08:33;2.10;;;1.37;;
7919;SDS011;18778;47.610;9.776;2023-09-19T07:10:59;2.33;;;1.43;;
7919;SDS011;18778;47.610;9.776;2023-09-19T07:13:24;2.70;;;1.90;;
7919;SDS011;18778;47.610;9.776;2023-09-19T07:15:50;1.63;;;1.47;;
7919;SDS011;18778;47.610;9.776;2023-09-19T07:18:16;2.30;;;1.50;;
7919;SDS011;18778;47.610;9.776;2023-09-19T07:20:43;2.47;;;1.50;;
7919;SDS011;18778;47.610;9.776;2023-09-19T07:23:17;2.37;;;1.50;;
7919;SDS011;18778;47.610;9.776;2023-09-19T07:25:43;4.17;;;1.50;;
7919;SDS011;18778;47.610;9.776;2023-09-19T07:28:09;2.13;;;1.77;;
7919;SDS011;18778;47.610;9.776;2023-09-19T07:30:38;2.93;;;1.60;;
7919;SDS011;18778;47.610;9.776;2023-09-19T07:33:04;1.83;;;1.73;;
7919;SDS011;18778;47.610;9.776;2023-09-19T07:35:30;1.87;;;1.63;;
7919;SDS011;18778;47.610;9.776;2023-09-19T07:37:56;1.80;;;1.67;;
7919;SDS011;18778;47.610;9.776;2023-09-19T07:40:23;2.53;;;2.00;;
7919;SDS011;18778;47.610;9.776;2023-09-19T07:42:51;2.00;;;1.57;;
7919;SDS011;18778;47.610;9.776;2023-09-19T07:45:18;2.30;;;1.50;;
7919;SDS011;18778;47.610;9.776;2023-09-19T07:47:47;2.23;;;2.00;;
7919;SDS011;18778;47.610;9.776;2023-09-19T07:50:13;2.47;;;1.90;;
7919;SDS011;18778;47.610;9.776;2023-09-19T07:52:41;1.60;;;1.50;;
7919;SDS011;18778;47.610;9.776;2023-09-19T07:55:07;1.70;;;1.60;;
7919;SDS011;18778;47.610;9.776;2023-09-19T07:57:34;1.43;;;1.33;;
7919;SDS011;18778;47.610;9.776;2023-09-19T08:00:01;3.33;;;1.90;;
7919;SDS011;18778;47.610;9.776;2023-09-19T08:02:29;1.83;;;1.50;;
7919;SDS011;18778;47.610;9.776;2023-09-19T08:04:58;4.13;;;1.70;;
7919;SDS011;18778;47.610;9.776;2023-09-19T08:07:26;2.67;;;1.87;;
7919;SDS011;18778;47.610;9.776;2023-09-19T08:09:53;2.80;;;1.80;;
7919;SDS011;18778;47.610;9.776;2023-09-19T08:12:19;4.83;;;1.50;;
7919;SDS011;18778;47.610;9.776;2023-09-19T08:14:49;2.73;;;1.30;;
7919;SDS011;18778;47.610;9.776;2023-09-19T08:17:15;1.00;;;0.90;;
7919;SDS011;18778;47.610;9.776;2023-09-19T08:19:41;1.20;;;1.10;;
7919;SDS011;18778;47.610;9.776;2023-09-19T08:22:09;1.03;;;1.00;;
7919;SDS011;18778;47.610;9.776;2023-09-19T08:24:35;3.13;;;1.30;;
7919;SDS011;18778;47.610;9.776;2023-09-19T08:27:03;1.47;;;1.37;;
7919;SDS011;18778;47.610;9.776;2023-09-19T08:29:30;2.10;;;1.33;;
7919;SDS011;18778;47.610;9.776;2023-09-19T08:31:56;1.27;;;1.13;;
7919;SDS011;18778;47.610;9.776;2023-09-19T08:34:23;1.00;;;1.00;;
7919;SDS011;18778;47.610;9.776;2023-09-19T08:36:53;1.23;;;1.10;;
7919;SDS011;18778;47.610;9.776;2023-09-19T08:39:22;2.40;;;1.20;;
7919;SDS011;18778;47.610;9.776;2023-09-19T08:41:49;1.10;;;1.00;;
7919;SDS011;18778;47.610;9.776;2023-09-19T08:44:14;1.23;;;1.10;;
7919;SDS011;18778;47.610;9.776;2023-09-19T08:46:41;1.23;;;1.13;;
7919;SDS011;18778;47.610;9.776;2023-09-19T08:49:10;1.97;;;1.00;;
7919;SDS011;18778;47.610;9.776;2023-09-19T08:52:04;1.10;;;1.00;;
7919;SDS011;18778;47.610;9.776;2023-09-19T08:54:38;2.27;;;0.90;;
7919;SDS011;18778;47.610;9.776;2023-09-19T08:57:06;1.40;;;1.03;;
7919;SDS011;18778;47.610;9.776;2023-09-19T08:59:39;0.83;;;0.83;;
7919;SDS011;18778;47.610;9.776;2023-09-19T09:02:12;0.80;;;0.80;;
7919;SDS011;18778;47.610;9.776;2023-09-19T09:04:39;1.63;;;0.90;;
7919;SDS011;18778;47.610;9.776;2023-09-19T09:07:09;3.53;;;3.07;;
7919;SDS011;18778;47.610;9.776;2023-09-19T09:09:39;1.80;;;1.30;;
7919;SDS011;18778;47.610;9.776;2023-09-19T09:12:12;3.03;;;1.40;;
7919;SDS011;18778;47.610;9.776;2023-09-19T09:14:45;1.43;;;1.10;;
7919;SDS011;18778;47.610;9.776;2023-09-19T09:17:15;1.13;;;1.03;;
7919;SDS011;18778;47.610;9.776;2023-09-19T09:19:42;1.63;;;1.30;;
7919;SDS011;18778;47.610;9.776;2023-09-19T09:22:08;1.00;;;1.00;;
7919;SDS011;18778;47.610;9.776;2023-09-19T09:24:36;1.07;;;1.03;;
7919;SDS011;18778;47.610;9.776;2023-09-19T09:27:04;1.43;;;1.20;;
7919;SDS011;18778;47.610;9.776;2023-09-19T09:29:42;1.20;;;1.10;;
7919;SDS011;18778;47.610;9.776;2023-09-19T09:34:43;0.90;;;0.90;;
7919;SDS011;18778;47.610;9.776;2023-09-19T09:37:16;1.10;;;1.00;;
7919;SDS011;18778;47.610;9.776;2023-09-19T09:39:51;3.13;;;1.40;;
7919;SDS011;18778;47.610;9.776;2023-09-19T09:42:29;1.13;;;1.03;;
7919;SDS011;18778;47.610;9.776;2023-09-19T09:47:54;0.80;;;0.80;;
7919;SDS011;18778;47.610;9.776;2023-09-19T09:53:28;3.80;;;1.30;;
7919;SDS011;18778;47.610;9.776;2023-09-19T09:56:01;1.47;;;1.00;;
7919;SDS011;18778;47.610;9.776;2023-09-19T09:58:32;2.50;;;1.40;;
7919;SDS011;18778;47.610;9.776;2023-09-19T10:01:00;1.87;;;1.17;;
7919;SDS011;18778;47.610;9.776;2023-09-19T10:03:36;2.13;;;1.37;;
7919;SDS011;18778;47.610;9.776;2023-09-19T10:06:12;1.50;;;1.30;;
7919;SDS011;18778;47.610;9.776;2023-09-19T10:11:45;4.10;;;1.37;;
7919;SDS011;18778;47.610;9.776;2023-09-19T10:14:12;2.70;;;1.53;;
7919;SDS011;18778;47.610;9.776;2023-09-19T10:16:41;2.00;;;1.60;;
7919;SDS011;18778;47.610;9.776;2023-09-19T10:19:12;1.90;;;1.57;;
7919;SDS011;18778;47.610;9.776;2023-09-19T10:21:49;2.23;;;1.40;;
7919;SDS011;18778;47.610;9.776;2023-09-19T10:24:18;3.00;;;1.43;;
7919;SDS011;18778;47.610;9.776;2023-09-19T10:26:45;2.13;;;1.60;;
7919;SDS011;18778;47.610;9.776;2023-09-19T10:29:13;1.60;;;1.50;;
7919;SDS011;18778;47.610;9.776;2023-09-19T10:31:41;3.50;;;1.80;;
7919;SDS011;18778;47.610;9.776;2023-09-19T10:34:12;2.67;;;1.60;;
7919;SDS011;18778;47.610;9.776;2023-09-19T10:36:40;2.23;;;1.60;;
7919;SDS011;18778;47.610;9.776;2023-09-19T10:39:10;1.73;;;1.60;;
7919;SDS011;18778;47.610;9.776;2023-09-19T10:41:38;1.73;;;1.57;;
7919;SDS011;18778;47.610;9.776;2023-09-19T10:44:04;6.07;;;1.57;;
7919;SDS011;18778;47.610;9.776;2023-09-19T10:46:31;2.70;;;1.53;;
7919;SDS011;18778;47.610;9.776;2023-09-19T10:49:01;1.60;;;1.50;;
7919;SDS011;18778;47.610;9.776;2023-09-19T10:51:31;3.23;;;1.40;;
7919;SDS011;18778;47.610;9.776;2023-09-19T10:54:13;3.93;;;1.50;;
7919;SDS011;18778;47.610;9.776;2023-09-19T10:56:43;2.50;;;1.60;;
7919;SDS011;18778;47.610;9.776;2023-09-19T10:59:17;1.83;;;1.50;;
7919;SDS011;18778;47.610;9.776;2023-09-19T11:04:21;2.63;;;1.50;;
7919;SDS011;18778;47.610;9.776;2023-09-19T11:07:00;1.50;;;1.40;;
7919;SDS011;18778;47.610;9.776;2023-09-19T11:09:49;1.30;;;1.13;;
7919;SDS011;18778;47.610;9.776;2023-09-19T11:15:01;2.07;;;1.30;;
7919;SDS011;18778;47.610;9.776;2023-09-19T11:17:31;1.83;;;1.20;;
7919;SDS011;18778;47.610;9.776;2023-09-19T11:30:51;1.33;;;1.23;;
7919;SDS011;18778;47.610;9.776;2023-09-19T11:33:29;1.93;;;1.13;;
7919;SDS011;18778;47.610;9.776;2023-09-19T11:43:51;2.73;;;1.03;;
7919;SDS011;18778;47.610;9.776;2023-09-19T11:46:20;1.40;;;1.10;;
7919;SDS011;18778;47.610;9.776;2023-09-19T11:48:50;1.47;;;1.30;;
7919;SDS011;18778;47.610;9.776;2023-09-19T11:51:20;1.27;;;1.17;;
7919;SDS011;18778;47.610;9.776;2023-09-19T11:53:49;1.63;;;1.43;;
7919;SDS011;18778;47.610;9.776;2023-09-19T11:56:16;1.57;;;1.10;;
7919;SDS011;18778;47.610;9.776;2023-09-19T11:58:43;1.97;;;1.13;;
7919;SDS011;18778;47.610;9.776;2023-09-19T12:01:12;1.50;;;1.03;;
7919;SDS011;18778;47.610;9.776;2023-09-19T12:03:40;1.00;;;1.00;;
7919;SDS011;18778;47.610;9.776;2023-09-19T12:06:12;1.47;;;1.10;;
7919;SDS011;18778;47.610;9.776;2023-09-19T12:08:43;2.60;;;1.17;;
7919;SDS011;18778;47.610;9.776;2023-09-19T12:11:14;1.27;;;1.20;;
7919;SDS011;18778;47.610;9.776;2023-09-19T12:13:42;1.47;;;1.20;;
7919;SDS011;18778;47.610;9.776;2023-09-19T12:16:15;1.50;;;1.40;;
7919;SDS011;18778;47.610;9.776;2023-09-19T12:18:43;1.00;;;0.90;;
7919;SDS011;18778;47.610;9.776;2023-09-19T12:21:25;2.77;;;1.20;;
7919;SDS011;18778;47.610;9.776;2023-09-19T12:24:13;0.97;;;0.97;;
7919;SDS011;18778;47.610;9.776;2023-09-19T12:26:42;2.27;;;1.20;;
7919;SDS011;18778;47.610;9.776;2023-09-19T12:29:12;1.23;;;0.93;;
7919;SDS011;18778;47.610;9.776;2023-09-19T12:31:58;2.20;;;1.10;;
7919;SDS011;18778;47.610;9.776;2023-09-19T12:34:24;1.80;;;0.80;;
7919;SDS011;18778;47.610;9.776;2023-09-19T12:37:10;2.97;;;1.43;;
7919;SDS011;18778;47.610;9.776;2023-09-19T12:40:02;1.03;;;1.03;;
7919;SDS011;18778;47.610;9.776;2023-09-19T12:42:42;1.83;;;1.00;;
7919;SDS011;18778;47.610;9.776;2023-09-19T12:45:11;1.63;;;1.00;;
7919;SDS011;18778;47.610;9.776;2023-09-19T12:47:40;2.30;;;1.00;;
7919;SDS011;18778;47.610;9.776;2023-09-19T12:50:15;0.77;;;0.77;;
7919;SDS011;18778;47.610;9.776;2023-09-19T12:52:50;0.80;;;0.80;;
7919;SDS011;18778;47.610;9.776;2023-09-19T12:57:57;1.40;;;0.80;;
7919;SDS011;18778;47.610;9.776;2023-09-19T13:00:44;0.93;;;0.90;;
7919;SDS011;18778;47.610;9.776;2023-09-19T13:03:11;0.70;;;0.70;;
7919;SDS011;18778;47.610;9.776;2023-09-19T13:06:14;0.83;;;0.77;;
7919;SDS011;18778;47.610;9.776;2023-09-19T13:08:35;1.95;;;0.95;;
7919;SDS011;18778;47.610;9.776;2023-09-19T13:11:11;0.98;;;0.88;;
7919;SDS011;18778;47.610;9.776;2023-09-19T13:13:39;1.15;;;0.90;;
7919;SDS011;18778;47.610;9.776;2023-09-19T13:16:18;1.10;;;0.90;;
7919;SDS011;18778;47.610;9.776;2023-09-19T13:18:50;1.10;;;1.00;;
7919;SDS011;18778;47.610;9.776;2023-09-19T13:21:33;1.17;;;0.90;;
7919;SDS011;18778;47.610;9.776;2023-09-19T13:26:52;1.00;;;0.90;;
7919;SDS011;18778;47.610;9.776;2023-09-19T13:29:18;1.38;;;0.93;;
7919;SDS011;18778;47.610;9.776;2023-09-19T13:31:47;1.13;;;0.90;;
7919;SDS011;18778;47.610;9.776;2023-09-19T13:34:14;1.58;;;0.88;;
7919;SDS011;18778;47.610;9.776;2023-09-19T13:36:43;0.70;;;0.70;;
7919;SDS011;18778;47.610;9.776;2023-09-19T13:39:10;0.95;;;0.95;;
7919;SDS011;18778;47.610;9.776;2023-09-19T13:41:38;1.85;;;1.00;;
7919;SDS011;18778;47.610;9.776;2023-09-19T13:44:04;1.13;;;0.70;;
7919;SDS011;18778;47.610;9.776;2023-09-19T13:46:31;0.90;;;0.90;;
7919;SDS011;18778;47.610;9.776;2023-09-19T13:48:59;0.60;;;0.60;;
7919;SDS011;18778;47.610;9.776;2023-09-19T13:51:28;0.60;;;0.60;;
7919;SDS011;18778;47.610;9.776;2023-09-19T13:53:55;0.77;;;0.77;;
7919;SDS011;18778;47.610;9.776;2023-09-19T13:56:20;1.80;;;0.90;;
7919;SDS011;18778;47.610;9.776;2023-09-19T13:58:46;0.70;;;0.70;;
7919;SDS011;18778;47.610;9.776;2023-09-19T14:01:12;0.80;;;0.80;;
7919;SDS011;18778;47.610;9.776;2023-09-19T14:03:38;1.45;;;0.90;;
7919;SDS011;18778;47.610;9.776;2023-09-19T14:06:05;2.58;;;0.80;;
7919;SDS011;18778;47.610;9.776;2023-09-19T14:08:30;3.33;;;1.02;;
7919;SDS011;18778;47.610;9.776;2023-09-19T14:10:58;1.02;;;0.75;;
7919;SDS011;18778;47.610;9.776;2023-09-19T14:13:24;0.80;;;0.80;;
7919;SDS011;18778;47.610;9.776;2023-09-19T14:15:50;1.03;;;0.83;;
7919;SDS011;18778;47.610;9.776;2023-09-19T14:18:16;2.70;;;1.00;;
7919;SDS011;18778;47.610;9.776;2023-09-19T14:20:43;0.80;;;0.80;;
7919;SDS011;18778;47.610;9.776;2023-09-19T14:23:09;0.93;;;0.90;;
7919;SDS011;18778;47.610;9.776;2023-09-19T14:25:35;3.80;;;1.00;;
7919;SDS011;18778;47.610;9.776;2023-09-19T14:28:03;0.90;;;0.77;;
7919;SDS011;18778;47.610;9.776;2023-09-19T14:30:29;1.10;;;1.00;;
7919;SDS011;18778;47.610;9.776;2023-09-19T14:32:54;0.97;;;0.90;;
7919;SDS011;18778;47.610;9.776;2023-09-19T14:35:21;1.13;;;1.03;;
7919;SDS011;18778;47.610;9.776;2023-09-19T14:37:48;3.03;;;1.00;;
7919;SDS011;18778;47.610;9.776;2023-09-19T14:40:13;0.80;;;0.80;;
7919;SDS011;18778;47.610;9.776;2023-09-19T14:42:42;1.03;;;0.80;;
7919;SDS011;18778;47.610;9.776;2023-09-19T14:45:10;0.73;;;0.73;;
7919;SDS011;18778;47.610;9.776;2023-09-19T14:47:36;1.30;;;0.90;;
7919;SDS011;18778;47.610;9.776;2023-09-19T14:50:02;0.90;;;0.90;;
7919;SDS011;18778;47.610;9.776;2023-09-19T14:52:31;1.80;;;1.00;;
7919;SDS011;18778;47.610;9.776;2023-09-19T14:55:01;0.97;;;0.90;;
7919;SDS011;18778;47.610;9.776;2023-09-19T14:57:27;1.87;;;0.90;;
7919;SDS011;18778;47.610;9.776;2023-09-19T14:59:53;1.40;;;1.00;;
7919;SDS011;18778;47.610;9.776;2023-09-19T15:02:19;0.90;;;0.80;;
7919;SDS011;18778;47.610;9.776;2023-09-19T15:04:45;1.00;;;0.90;;
7919;SDS011;18778;47.610;9.776;2023-09-19T15:07:13;1.43;;;0.80;;
7919;SDS011;18778;47.610;9.776;2023-09-19T15:09:40;1.13;;;1.00;;
7919;SDS011;18778;47.610;9.776;2023-09-19T15:12:06;0.77;;;0.77;;
7919;SDS011;18778;47.610;9.776;2023-09-19T15:14:32;0.90;;;0.90;;
7919;SDS011;18778;47.610;9.776;2023-09-19T15:16:57;0.70;;;0.70;;
7919;SDS011;18778;47.610;9.776;2023-09-19T15:19:23;3.70;;;1.33;;
7919;SDS011;18778;47.610;9.776;2023-09-19T15:21:49;1.40;;;0.97;;
7919;SDS011;18778;47.610;9.776;2023-09-19T15:24:14;1.60;;;1.07;;
7919;SDS011;18778;47.610;9.776;2023-09-19T15:26:42;0.70;;;0.70;;
7919;SDS011;18778;47.610;9.776;2023-09-19T15:29:09;1.10;;;0.90;;
7919;SDS011;18778;47.610;9.776;2023-09-19T15:31:35;1.23;;;1.00;;
7919;SDS011;18778;47.610;9.776;2023-09-19T15:34:02;0.80;;;0.80;;
7919;SDS011;18778;47.610;9.776;2023-09-19T15:36:28;0.70;;;0.70;;
7919;SDS011;18778;47.610;9.776;2023-09-19T15:41:32;1.90;;;1.00;;
7919;SDS011;18778;47.610;9.776;2023-09-19T15:44:00;1.57;;;1.00;;
7919;SDS011;18778;47.610;9.776;2023-09-19T15:46:28;0.93;;;0.80;;
7919;SDS011;18778;47.610;9.776;2023-09-19T15:48:55;1.03;;;0.93;;
7919;SDS011;18778;47.610;9.776;2023-09-19T15:51:21;0.93;;;0.90;;
7919;SDS011;18778;47.610;9.776;2023-09-19T15:53:48;1.03;;;0.90;;
7919;SDS011;18778;47.610;9.776;2023-09-19T15:56:18;0.83;;;0.83;;
7919;SDS011;18778;47.610;9.776;2023-09-19T15:58:49;1.17;;;1.00;;
7919;SDS011;18778;47.610;9.776;2023-09-19T16:01:16;1.37;;;1.00;;
7919;SDS011;18778;47.610;9.776;2023-09-19T16:03:45;0.90;;;0.90;;
7919;SDS011;18778;47.610;9.776;2023-09-19T16:06:13;1.83;;;1.00;;
7919;SDS011;18778;47.610;9.776;2023-09-19T16:08:41;1.23;;;1.07;;
7919;SDS011;18778;47.610;9.776;2023-09-19T16:11:07;0.80;;;0.80;;